Time;durP1;ratioP1;P1;durP2;ratioP2;P2;SDS_P1;SDS_P2;PMS_P1;PMS_P2;Temp;Humidity;BMP_temperature;BMP_pressure;BME280_temperature;BME280_humidity;BME280_pressure;Samples;Min_cycle;Max_cycle;Signal;HPM_P1;HPM_P2
2022/05/19 00:02:18;;;;;;;;;6.00;4.50;;;;;27.47;67.64;101258.50;5098614;27;45576;-86
2022/05/19 00:04:43;;;;;;;;;6.25;4.50;;;;;27.50;67.70;101249.59;5098103;27;45274;-86
2022/05/19 00:07:09;;;;;;;;;7.00;6.00;;;;;27.53;67.72;101238.00;5097950;27;45390;-85
2022/05/19 00:09:36;;;;;;;;;6.00;6.00;;;;;27.53;67.24;101228.25;5098343;27;45361;-86
2022/05/19 00:12:06;;;;;;;;;5.25;5.25;;;;;27.60;66.85;101234.31;5097861;27;45579;-86
2022/05/19 00:14:32;;;;;;;;;6.25;6.00;;;;;27.63;66.66;101223.63;5098209;27;45394;-85
2022/05/19 00:16:58;;;;;;;;;7.50;7.00;;;;;27.62;66.70;101224.53;5103090;27;45166;-84
2022/05/19 00:19:25;;;;;;;;;6.25;6.25;;;;;27.62;66.46;101213.88;5083162;27;45337;-86
2022/05/19 00:21:51;;;;;;;;;5.25;4.50;;;;;27.61;66.54;101217.44;5079186;27;45559;-85
2022/05/19 00:24:17;;;;;;;;;6.25;5.25;;;;;27.60;67.12;101205.94;5078249;28;45398;-85
2022/05/19 00:26:42;;;;;;;;;7.00;6.00;;;;;27.55;67.16;101204.28;5079587;28;45422;-86
2022/05/19 00:29:08;;;;;;;;;6.25;6.25;;;;;27.53;67.38;101214.97;5077703;28;45337;-86
2022/05/19 00:31:34;;;;;;;;;7.50;7.25;;;;;27.54;67.48;101199.88;5078139;28;45585;-84
2022/05/19 00:34:01;;;;;;;;;6.00;6.00;;;;;27.55;67.04;101194.50;5076553;27;45995;-85
2022/05/19 00:36:27;;;;;;;;;7.00;6.00;;;;;27.51;67.33;101184.84;5077110;28;45673;-84
2022/05/19 00:38:53;;;;;;;;;6.00;6.00;;;;;27.49;67.95;101190.19;5077626;28;45482;-84
2022/05/19 00:41:19;;;;;;;;;8.00;8.00;;;;;27.48;69.02;101188.44;5077395;28;45169;-84
2022/05/19 00:43:55;;;;;;;;;9.75;7.25;;;;;27.46;69.16;101189.38;5074685;28;45505;-85
2022/05/19 00:46:45;;;;;;;;;9.00;5.25;;;;;27.44;70.09;101183.19;5076888;28;45485;-85
2022/05/19 00:49:23;;;;;;;;;8.50;7.00;;;;;27.41;71.27;101177.94;5076897;27;45968;-85
2022/05/19 00:51:55;;;;;;;;;6.00;6.00;;;;;27.39;71.53;101172.63;5058945;28;45451;-85
2022/05/19 00:54:27;;;;;;;;;8.00;7.00;;;;;27.38;72.04;101162.03;5055030;28;46990;-80
2022/05/19 00:56:55;;;;;;;;;7.00;5.25;;;;;27.37;72.01;101153.19;5057084;28;45802;-80
2022/05/19 00:59:40;;;;;;;;;5.50;5.50;;;;;27.40;71.99;101162.88;5062557;28;45385;-85
2022/05/19 01:02:09;;;;;;;;;9.25;7.75;;;;;27.39;72.29;101156.66;5078080;28;45320;-85
2022/05/19 01:05:03;;;;;;;;;9.25;8.50;;;;;27.39;72.43;101150.50;5077264;28;45435;-85
2022/05/19 01:07:46;;;;;;;;;7.50;7.50;;;;;27.42;73.13;101142.47;5072632;27;45770;-84
2022/05/19 01:10:13;;;;;;;;;3.75;3.25;;;;;27.43;72.76;101154.84;5076575;27;45329;-85
2022/05/19 01:12:40;;;;;;;;;8.75;7.00;;;;;27.42;72.61;101143.31;5073420;27;45404;-86
2022/05/19 01:15:06;;;;;;;;;8.00;7.25;;;;;27.43;73.24;101145.09;5076052;27;46384;-85
2022/05/19 01:17:34;;;;;;;;;8.25;7.50;;;;;27.45;73.33;101147.72;5076586;28;45330;-85
2022/05/19 01:20:09;;;;;;;;;10.75;10.75;;;;;27.41;73.46;101141.56;5076207;28;45227;-85
2022/05/19 01:22:56;;;;;;;;;12.00;11.00;;;;;27.40;73.73;101144.28;5074715;28;45525;-86
2022/05/19 01:25:38;;;;;;;;;8.50;8.00;;;;;27.35;74.12;101147.88;5074321;28;47032;-84
2022/05/19 01:28:05;;;;;;;;;8.50;8.50;;;;;27.31;75.05;101148.88;5074667;27;45834;-84
2022/05/19 01:30:31;;;;;;;;;9.75;9.00;;;;;27.28;73.85;101145.38;5076301;27;45447;-85
2022/05/19 01:32:56;;;;;;;;;10.75;8.75;;;;;27.25;72.43;101143.66;5076309;27;45868;-80
2022/05/19 01:35:23;;;;;;;;;8.25;7.75;;;;;27.19;72.29;101146.44;5076296;28;45719;-85
2022/05/19 01:37:49;;;;;;;;;9.75;9.00;;;;;27.12;70.93;101156.31;5089343;27;45480;-85
2022/05/19 01:40:30;;;;;;;;;10.25;8.00;;;;;27.06;70.50;101147.56;5096537;27;45468;-85
2022/05/19 01:43:11;;;;;;;;;7.25;7.25;;;;;26.99;70.62;101149.47;5078112;27;45449;-81
2022/05/19 01:46:00;;;;;;;;;9.75;9.50;;;;;26.97;70.32;101148.63;5096791;27;45472;-81
2022/05/19 01:48:48;;;;;;;;;7.00;7.00;;;;;26.96;70.85;101138.88;5056236;28;45685;-85
2022/05/19 01:51:25;;;;;;;;;9.25;8.25;;;;;26.94;72.08;101141.59;5055381;28;45385;-81
2022/05/19 01:54:18;;;;;;;;;9.00;8.00;;;;;26.90;72.41;101139.00;5038372;28;45557;-84
2022/05/19 01:56:58;;;;;;;;;7.00;7.00;;;;;26.86;73.40;101140.84;5077113;27;45546;-81
2022/05/19 01:59:47;;;;;;;;;10.00;10.00;;;;;26.84;73.96;101138.22;5079916;28;45382;-81
2022/05/19 02:02:31;;;;;;;;;11.00;11.00;;;;;26.85;75.39;101142.63;5063062;28;45278;-85
2022/05/19 02:05:18;;;;;;;;;12.75;10.75;;;;;26.88;78.39;101147.03;5084161;27;45374;-81
2022/05/19 02:07:48;;;;;;;;;12.00;10.75;;;;;26.90;81.25;101152.31;5097065;27;46044;-85
2022/05/19 02:10:20;;;;;;;;;10.25;9.75;;;;;26.86;81.20;101144.38;5079358;27;45295;-84
2022/05/19 02:12:48;;;;;;;;;13.00;13.00;;;;;26.84;81.51;101146.19;5079694;27;45414;-85
2022/05/19 02:15:18;;;;;;;;;9.25;9.25;;;;;26.85;81.30;101147.06;5079696;28;45465;-84
2022/05/19 02:17:47;;;;;;;;;12.00;12.00;;;;;26.82;81.84;101141.81;5079357;27;45383;-82
2022/05/19 02:20:16;;;;;;;;;13.00;13.00;;;;;26.80;81.94;101140.94;5078863;28;45434;-83
2022/05/19 02:22:43;;;;;;;;;13.00;11.25;;;;;26.79;82.11;101136.53;5079804;27;45413;-81
2022/05/19 02:25:31;;;;;;;;;15.00;13.50;;;;;26.79;81.41;101140.09;5079310;27;45232;-81
2022/05/19 02:28:02;;;;;;;;;12.50;11.00;;;;;26.75;79.84;101145.44;5079326;28;45289;-81
2022/05/19 02:30:35;;;;;;;;;13.50;13.00;;;;;26.67;80.25;101141.13;5079319;27;45463;-80
2022/05/19 02:33:01;;;;;;;;;13.75;12.25;;;;;26.62;80.89;101147.44;5080296;28;45224;-85
2022/05/19 02:35:27;;;;;;;;;17.00;13.25;;;;;26.58;81.96;101144.84;5082516;28;45750;-82
2022/05/19 02:37:54;;;;;;;;;13.25;11.25;;;;;26.55;82.21;101144.88;5079578;27;45579;-87
2022/05/19 02:40:23;;;;;;;;;10.00;9.00;;;;;26.55;82.39;101142.22;5080351;28;45804;-86
2022/05/19 02:42:49;;;;;;;;;14.00;13.00;;;;;26.53;83.56;101145.81;5060868;28;45444;-80
2022/05/19 02:45:19;;;;;;;;;11.25;10.75;;;;;26.49;83.53;101146.75;5079312;28;45458;-81
2022/05/19 02:47:45;;;;;;;;;13.00;11.00;;;;;26.48;83.96;101147.66;5078952;28;46205;-86
2022/05/19 02:50:13;;;;;;;;;15.25;13.25;;;;;26.47;83.58;101149.44;5078665;27;45354;-86
2022/05/19 02:52:38;;;;;;;;;13.75;12.00;;;;;26.45;84.91;101143.28;5078536;28;45332;-86
2022/05/19 02:55:05;;;;;;;;;14.00;11.00;;;;;26.45;84.81;101147.72;5079276;28;45469;-86
2022/05/19 02:57:31;;;;;;;;;14.25;12.00;;;;;26.48;86.01;101152.97;5078835;28;45253;-86
2022/05/19 02:59:58;;;;;;;;;12.25;11.25;;;;;26.46;85.63;101145.03;5078764;27;45374;-82
2022/05/19 03:02:23;;;;;;;;;13.50;13.50;;;;;26.47;86.29;101146.78;5079211;27;45272;-86
2022/05/19 03:04:49;;;;;;;;;12.25;11.50;;;;;26.48;86.36;101148.53;5079332;28;45532;-86
2022/05/19 03:07:15;;;;;;;;;12.75;10.50;;;;;26.49;85.98;101141.44;5077720;28;46064;-86
2022/05/19 03:09:42;;;;;;;;;11.75;11.50;;;;;26.50;86.33;101144.09;5078597;28;45499;-85
2022/05/19 03:12:09;;;;;;;;;14.50;12.75;;;;;26.47;86.65;101138.81;5078472;28;45346;-84
2022/05/19 03:14:35;;;;;;;;;11.75;11.00;;;;;26.52;87.48;101146.72;5078937;28;45569;-84
2022/05/19 03:17:01;;;;;;;;;14.25;13.00;;;;;26.53;86.17;101141.38;5078069;28;45911;-82
2022/05/19 03:19:26;;;;;;;;;13.25;12.25;;;;;26.55;86.52;101142.22;5078568;28;45725;-82
2022/05/19 03:21:52;;;;;;;;;14.25;13.25;;;;;26.60;86.97;101144.78;5078602;28;45334;-82
2022/05/19 03:24:17;;;;;;;;;13.25;10.50;;;;;26.63;86.62;101138.53;5076061;28;45564;-83
2022/05/19 03:26:43;;;;;;;;;14.00;13.50;;;;;26.66;87.26;101144.72;5075831;27;45424;-83
2022/05/19 03:29:09;;;;;;;;;11.50;11.50;;;;;26.69;87.92;101141.13;5076019;28;45356;-85
2022/05/19 03:31:35;;;;;;;;;12.00;12.00;;;;;26.70;87.35;101148.19;5077153;28;45482;-85
2022/05/19 03:34:03;;;;;;;;;11.00;11.00;;;;;26.64;87.39;101143.84;5076906;27;45498;-85
2022/05/19 03:36:29;;;;;;;;;15.75;13.00;;;;;26.61;88.33;101140.38;5058852;28;47244;-84
2022/05/19 03:38:55;;;;;;;;;12.00;10.75;;;;;26.56;89.72;101140.47;5060015;28;45715;-83
2022/05/19 03:41:22;;;;;;;;;16.75;13.00;;;;;26.53;89.16;101144.00;5059730;28;45365;-82
2022/05/19 03:43:48;;;;;;;;;12.25;11.25;;;;;26.49;90.01;101142.34;5077818;27;45656;-81
2022/05/19 03:46:14;;;;;;;;;13.00;11.00;;;;;26.46;89.60;101138.84;5077535;28;46412;-82
2022/05/19 03:48:40;;;;;;;;;10.00;10.00;;;;;26.44;90.05;101138.88;5078008;28;45804;-82
2022/05/19 03:51:10;;;;;;;;;12.50;12.25;;;;;26.42;90.08;101143.31;5077803;28;45401;-82
2022/05/19 03:53:36;;;;;;;;;12.75;11.00;;;;;26.38;90.55;101131.88;5060082;28;45189;-82
2022/05/19 03:56:02;;;;;;;;;12.00;11.75;;;;;26.40;90.42;101135.38;5077595;28;45984;-82
2022/05/19 03:58:27;;;;;;;;;11.75;11.00;;;;;26.41;90.56;101133.59;5077755;28;45458;-81
2022/05/19 04:00:53;;;;;;;;;13.25;13.25;;;;;26.40;90.79;101135.38;5078075;28;45329;-82
2022/05/19 04:03:18;;;;;;;;;12.25;12.25;;;;;26.37;90.22;101135.44;5077723;28;45570;-82
2022/05/19 04:05:44;;;;;;;;;14.00;10.50;;;;;26.38;89.86;101153.09;5059752;28;45902;-81
2022/05/19 04:08:10;;;;;;;;;15.50;11.75;;;;;26.38;90.21;101146.94;5078435;28;45414;-81
2022/05/19 04:10:42;;;;;;;;;16.50;11.75;;;;;26.37;90.43;101145.19;5079843;28;45415;-86
2022/05/19 04:13:09;;;;;;;;;11.50;11.25;;;;;26.31;91.07;101143.50;5078037;27;45235;-86
2022/05/19 04:15:34;;;;;;;;;13.75;12.00;;;;;26.30;91.25;101152.34;5077414;28;46233;-86
2022/05/19 04:18:00;;;;;;;;;13.00;10.75;;;;;26.25;91.36;101141.81;5077276;28;45386;-86
2022/05/19 04:20:30;;;;;;;;;13.00;12.25;;;;;26.23;90.40;101137.44;5077750;27;45378;-86
2022/05/19 04:22:56;;;;;;;;;12.00;12.00;;;;;26.20;91.59;101141.00;5078575;28;45343;-86
2022/05/19 04:25:22;;;;;;;;;14.75;12.00;;;;;26.20;91.31;101148.09;5059999;28;45540;-86
2022/05/19 04:27:48;;;;;;;;;16.25;15.50;;;;;26.18;91.91;101141.94;5080191;28;45334;-86
2022/05/19 04:30:14;;;;;;;;;13.00;13.00;;;;;26.17;91.86;101142.81;5079689;28;45288;-86
2022/05/19 04:32:39;;;;;;;;;14.25;13.00;;;;;26.16;92.81;101155.22;5077980;28;45622;-86
2022/05/19 04:35:05;;;;;;;;;9.00;8.50;;;;;26.16;92.40;101157.00;5076574;27;46203;-86
2022/05/19 04:37:31;;;;;;;;;17.00;12.00;;;;;26.14;92.50;101157.03;5077063;27;45334;-85
2022/05/19 04:40:00;;;;;;;;;5.25;3.00;;;;;26.11;92.23;101154.41;5077219;28;45300;-81
2022/05/19 04:42:25;;;;;;;;;12.00;12.00;;;;;26.14;92.32;101172.94;5078210;28;45298;-86
2022/05/19 04:44:54;;;;;;;;;15.25;13.75;;;;;26.13;91.92;101189.75;5077113;27;46142;-86
2022/05/19 04:47:19;;;;;;;;;13.00;12.00;;;;;26.13;92.82;101191.56;5075286;28;45362;-86
2022/05/19 04:49:45;;;;;;;;;14.00;11.25;;;;;26.14;92.29;101194.19;5059125;28;45452;-86
2022/05/19 04:52:11;;;;;;;;;12.00;12.00;;;;;26.15;92.46;101195.03;5081231;28;45616;-86
2022/05/19 04:54:36;;;;;;;;;13.50;10.75;;;;;26.15;92.10;101210.97;5077077;28;45423;-85
2022/05/19 04:57:02;;;;;;;;;12.25;12.25;;;;;26.15;94.13;101206.56;5076972;28;45546;-86
2022/05/19 04:59:28;;;;;;;;;13.75;13.75;;;;;26.14;94.79;101222.47;5078248;27;45467;-85
2022/05/19 05:01:53;;;;;;;;;13.75;13.00;;;;;26.11;96.76;101208.38;5077068;28;45488;-85
2022/05/19 05:04:19;;;;;;;;;15.00;12.75;;;;;26.09;97.92;101219.84;5076703;28;45842;-86
2022/05/19 05:06:45;;;;;;;;;16.00;14.00;;;;;26.08;98.18;101218.97;5077211;27;45857;-86
2022/05/19 05:09:11;;;;;;;;;13.25;13.00;;;;;26.06;98.97;101215.47;5077754;27;45422;-85
2022/05/19 05:11:39;;;;;;;;;14.50;14.00;;;;;26.07;99.61;101217.22;5078112;27;45363;-86
2022/05/19 05:14:05;;;;;;;;;16.50;14.75;;;;;26.03;99.43;101218.16;5074375;27;45485;-85
2022/05/19 05:16:30;;;;;;;;;13.50;13.50;;;;;26.03;99.44;101212.84;5075101;28;45566;-85
2022/05/19 05:18:56;;;;;;;;;12.75;12.75;;;;;26.00;100.00;101220.88;5089331;28;45333;-84
2022/05/19 05:21:21;;;;;;;;;13.50;13.50;;;;;26.00;100.00;101212.91;5076325;28;45352;-82
2022/05/19 05:23:47;;;;;;;;;12.25;11.50;;;;;26.01;100.00;101214.66;5075955;28;45522;-82
2022/05/19 05:26:12;;;;;;;;;14.00;13.00;;;;;26.04;100.00;101232.31;5075033;28;45304;-82
2022/05/19 05:28:38;;;;;;;;;14.00;12.50;;;;;26.05;100.00;101271.22;5075483;28;45271;-82
2022/05/19 05:31:04;;;;;;;;;15.50;13.00;;;;;25.95;100.00;101284.59;5075173;28;45576;-82
2022/05/19 05:33:31;;;;;;;;;11.00;11.00;;;;;25.87;100.00;101278.50;5075874;28;46220;-82
2022/05/19 05:35:57;;;;;;;;;13.75;12.75;;;;;25.81;100.00;101266.16;5077034;28;45798;-82
2022/05/19 05:38:23;;;;;;;;;10.75;10.75;;;;;25.78;100.00;101279.50;5075981;28;45774;-85
2022/05/19 05:40:50;;;;;;;;;14.25;12.75;;;;;25.73;100.00;101285.75;5077025;28;45331;-80
2022/05/19 05:43:18;;;;;;;;;12.25;12.25;;;;;25.65;100.00;101267.25;5076482;28;46451;-86
2022/05/19 05:45:48;;;;;;;;;14.25;14.25;;;;;25.62;100.00;101265.53;5079184;28;45249;-83
2022/05/19 05:48:15;;;;;;;;;14.50;12.50;;;;;25.59;100.00;101273.50;5077015;28;45816;-80
2022/05/19 05:50:41;;;;;;;;;15.00;13.50;;;;;25.60;100.00;101277.00;5083840;28;45560;-95
2022/05/19 05:53:07;;;;;;;;;13.00;12.00;;;;;25.61;100.00;101277.03;5077683;28;45518;-81
2022/05/19 05:55:35;;;;;;;;;15.50;13.75;;;;;25.64;100.00;101271.69;5074915;28;45349;-80
2022/05/19 05:58:05;;;;;;;;;14.25;11.75;;;;;25.67;100.00;101275.19;5075480;28;45403;-81
2022/05/19 06:00:32;;;;;;;;;14.50;13.00;;;;;25.73;100.00;101264.53;5076818;28;45400;-79
2022/05/19 06:02:57;;;;;;;;;15.50;13.25;;;;;25.76;100.00;101262.72;5078064;28;46011;-85
2022/05/19 06:05:23;;;;;;;;;13.25;12.25;;;;;25.77;100.00;101256.50;5059410;28;45437;-82
2022/05/19 06:07:48;;;;;;;;;12.75;12.25;;;;;25.80;100.00;101253.84;5077621;28;45406;-82
2022/05/19 06:10:15;;;;;;;;;16.00;15.00;;;;;25.85;100.00;101256.44;5079708;28;45445;-82
2022/05/19 06:12:41;;;;;;;;;12.75;12.75;;;;;25.81;100.00;101263.53;5076823;27;46182;-81
2022/05/19 06:15:09;;;;;;;;;13.00;13.00;;;;;25.75;100.00;101266.25;5075607;27;45537;-86
2022/05/19 06:17:35;;;;;;;;;13.50;13.50;;;;;25.78;100.00;101260.94;5074125;27;45547;-79
2022/05/19 06:20:01;;;;;;;;;15.00;15.00;;;;;25.80;100.00;101266.19;5074687;28;45473;-81
2022/05/19 06:22:26;;;;;;;;;13.75;13.00;;;;;25.78;100.00;101262.69;5083851;27;45627;-82
2022/05/19 06:24:52;;;;;;;;;14.25;12.50;;;;;25.72;100.00;101268.06;5081672;27;45473;-79
2022/05/19 06:27:18;;;;;;;;;14.75;14.00;;;;;25.64;100.00;101263.75;5074913;28;45411;-85
2022/05/19 06:29:43;;;;;;;;;14.75;14.50;;;;;25.62;100.00;101261.97;5074310;28;45438;-81
2022/05/19 06:32:10;;;;;;;;;16.75;15.00;;;;;25.62;100.00;101267.28;5089625;27;46113;-79
2022/05/19 06:34:36;;;;;;;;;18.25;16.75;;;;;25.62;100.00;101262.88;5083171;27;45755;-81
2022/05/19 06:37:02;;;;;;;;;13.50;12.25;;;;;25.62;100.00;101259.31;5084329;27;45495;-80
2022/05/19 06:39:29;;;;;;;;;19.75;17.50;;;;;25.62;100.00;101259.31;5083751;27;45350;-80
2022/05/19 06:42:00;;;;;;;;;15.00;14.25;;;;;25.61;100.00;101262.88;5062247;28;47900;-80
2022/05/19 06:44:38;;;;;;;;;19.00;17.75;;;;;25.63;100.00;101264.63;5075690;28;45344;-80
2022/05/19 06:47:13;;;;;;;;;15.25;15.00;;;;;25.68;100.00;101272.53;5057353;28;45378;-82
2022/05/19 06:49:52;;;;;;;;;17.75;15.00;;;;;25.67;100.00;101283.13;5058475;28;45178;-79
2022/05/19 06:52:24;;;;;;;;;17.75;16.25;;;;;25.61;100.00;101277.03;5072470;27;45966;-76
2022/05/19 06:54:52;;;;;;;;;16.25;16.25;;;;;25.56;100.00;101284.13;5098424;27;45712;-76
2022/05/19 06:57:22;;;;;;;;;17.75;14.75;;;;;25.48;100.00;101278.03;5083623;27;45358;-77
2022/05/19 06:59:49;;;;;;;;;17.75;14.75;;;;;25.46;100.00;101287.78;5086785;27;45236;-78
2022/05/19 07:02:20;;;;;;;;;17.75;16.25;;;;;25.44;100.00;101292.19;5063212;27;45284;-77
2022/05/19 07:04:46;;;;;;;;;19.00;16.50;;;;;25.42;100.00;101291.34;5091150;27;45377;-79
2022/05/19 07:07:12;;;;;;;;;16.50;14.75;;;;;25.42;100.00;101299.31;5072090;28;45310;-80
2022/05/19 07:09:38;;;;;;;;;26.25;20.00;;;;;25.43;100.00;101298.41;5083993;27;45489;-80
2022/05/19 07:12:06;;;;;;;;;18.75;15.75;;;;;25.39;100.00;101296.66;5078559;27;46151;-80
2022/05/19 07:14:32;;;;;;;;;20.75;16.00;;;;;25.33;100.00;101298.44;5073016;27;45449;-78
2022/05/19 07:16:58;;;;;;;;;16.00;16.00;;;;;25.30;100.00;101295.84;5077981;27;45403;-77
2022/05/19 07:22:15;;;;;;;;;18.75;14.25;;;;;25.25;100.00;101305.59;5095184;27;45755;-80
2022/05/19 07:24:42;;;;;;;;;17.00;16.00;;;;;25.18;100.00;101301.25;5077591;28;45461;-80
2022/05/19 07:27:07;;;;;;;;;18.25;16.50;;;;;25.17;100.00;101283.59;5069839;28;45502;-81
2022/05/19 07:29:33;;;;;;;;;17.75;17.75;;;;;25.18;100.00;101280.91;5059873;28;45467;-79
2022/05/19 07:32:00;;;;;;;;;13.00;13.00;;;;;25.19;100.00;101287.09;5088987;27;46459;-81
2022/05/19 07:34:28;;;;;;;;;18.00;16.25;;;;;25.21;100.00;101292.38;5097132;27;45684;-80
2022/05/19 07:36:54;;;;;;;;;14.25;14.00;;;;;25.22;100.00;101286.19;5058359;28;45262;-82
2022/05/19 07:39:21;;;;;;;;;15.75;15.75;;;;;25.24;100.00;101287.94;5074513;28;45481;-81
2022/05/19 07:41:47;;;;;;;;;14.50;14.50;;;;;25.27;100.00;101292.34;5065265;27;46036;-82
2022/05/19 07:44:13;;;;;;;;;18.50;15.75;;;;;25.26;100.00;101307.34;5061492;28;45863;-81
2022/05/19 07:46:39;;;;;;;;;17.50;15.50;;;;;25.23;100.00;101306.50;5085430;27;45490;-79
2022/05/19 07:49:05;;;;;;;;;19.25;16.25;;;;;25.19;100.00;101297.72;5077227;28;45883;-80
2022/05/19 07:51:39;;;;;;;;;17.25;16.25;;;;;25.21;100.00;101309.19;5058657;28;46948;-79
2022/05/19 07:54:10;;;;;;;;;20.50;19.00;;;;;25.24;100.00;101309.13;5075223;27;46120;-77
2022/05/19 07:56:37;;;;;;;;;19.25;17.25;;;;;25.26;100.00;101323.25;5067211;28;45549;-79
2022/05/19 07:59:04;;;;;;;;;18.25;17.00;;;;;25.32;100.00;101338.22;5085548;27;45517;-80
2022/05/19 08:01:30;;;;;;;;;17.25;17.25;;;;;25.31;100.00;101333.81;5078915;27;45543;-80
2022/05/19 08:03:59;;;;;;;;;18.25;15.00;;;;;25.28;100.00;101349.72;5068265;27;45793;-81
2022/05/19 08:06:28;;;;;;;;;18.75;16.75;;;;;25.23;100.00;101359.50;5056298;27;45395;-78
2022/05/19 08:08:54;;;;;;;;;17.00;16.00;;;;;25.18;100.00;101365.72;5055172;27;45436;-81
2022/05/19 08:11:20;;;;;;;;;15.00;14.50;;;;;25.18;100.00;101371.00;5089838;27;46492;-82
2022/05/19 08:16:30;;;;;;;;;15.75;15.75;;;;;25.14;100.00;101386.94;5080993;27;45757;-82
2022/05/19 08:18:55;;;;;;;;;13.50;13.50;;;;;25.16;100.00;101385.16;5076628;27;45543;-80
2022/05/19 08:21:21;;;;;;;;;18.50;16.00;;;;;25.18;100.00;101396.66;5077135;27;46081;-82
2022/05/19 08:23:52;;;;;;;;;15.75;13.00;;;;;25.17;100.00;101408.13;5076519;27;45435;-83
2022/05/19 08:26:17;;;;;;;;;14.00;13.25;;;;;25.14;100.00;101408.13;5058358;28;45327;-81
2022/05/19 08:28:44;;;;;;;;;13.00;12.00;;;;;25.12;100.00;101439.06;5078263;27;45484;-80
2022/05/19 08:31:16;;;;;;;;;11.25;11.25;;;;;25.10;100.00;101424.97;5095472;27;45592;-81
2022/05/19 08:33:43;;;;;;;;;13.00;12.25;;;;;25.11;100.00;101445.25;5077365;27;45414;-83
2022/05/19 08:36:09;;;;;;;;;11.00;11.00;;;;;25.10;100.00;101454.97;5076236;28;45338;-82
2022/05/19 08:38:36;;;;;;;;;12.00;11.00;;;;;25.10;100.00;101451.47;5077136;28;45416;-83
2022/05/19 08:41:05;;;;;;;;;10.75;10.75;;;;;25.08;100.00;101442.63;5076335;27;45404;-84
2022/05/19 08:43:44;;;;;;;;;10.00;10.00;;;;;25.03;99.77;101453.25;5077348;27;45786;-82
2022/05/19 08:46:29;;;;;;;;;10.50;10.50;;;;;25.06;100.00;101445.28;5084637;27;45390;-81
2022/05/19 08:49:01;;;;;;;;;10.50;10.25;;;;;25.18;100.00;101450.50;5076353;28;45435;-79
2022/05/19 08:51:42;;;;;;;;;8.75;8.75;;;;;25.31;98.17;101453.09;5076734;28;45569;-82
2022/05/19 08:54:13;;;;;;;;;10.25;10.25;;;;;25.39;94.69;101459.22;5076777;28;45643;-81
2022/05/19 08:56:48;;;;;;;;;9.00;9.00;;;;;25.43;94.02;101447.75;5076533;28;45340;-80
2022/05/19 08:59:58;;;;;;;;;8.00;8.00;;;;;25.43;91.43;101473.38;5076328;28;45450;-80
2022/05/19 09:02:45;;;;;;;;;10.00;7.25;;;;;25.31;91.34;101461.94;5073941;28;46051;-78
2022/05/19 09:05:42;;;;;;;;;7.00;6.25;;;;;25.33;88.56;101493.72;5075080;27;45689;-79
2022/05/19 09:08:22;;;;;;;;;6.50;5.25;;;;;25.24;86.79;101484.03;5075164;28;45268;-80
2022/05/19 09:10:58;;;;;;;;;7.25;6.50;;;;;25.14;86.35;101501.78;5058387;28;45382;-78
2022/05/19 09:13:44;;;;;;;;;8.50;7.75;;;;;25.06;86.83;101511.50;5075275;28;46315;-79
2022/05/19 09:16:16;;;;;;;;;13.00;12.00;;;;;24.97;85.36;101540.69;5075556;28;45344;-79
2022/05/19 09:18:52;;;;;;;;;14.25;14.25;;;;;24.77;86.08;101538.13;5075575;28;45314;-78
2022/05/19 09:21:19;;;;;;;;;17.50;15.50;;;;;24.64;86.20;101537.22;5075958;28;45537;-78
2022/05/19 09:23:47;;;;;;;;;20.25;18.25;;;;;24.55;86.55;101536.38;5075865;28;46783;-83
2022/05/19 09:26:31;;;;;;;;;20.75;19.50;;;;;24.44;85.53;101545.22;5076338;27;45652;-79
2022/05/19 09:29:07;;;;;;;;;15.00;14.25;;;;;24.38;85.65;101544.31;5075036;28;45322;-79
2022/05/19 09:31:43;;;;;;;;;15.75;15.75;;;;;24.22;84.54;101545.22;5057905;28;45504;-76
2022/05/19 09:34:10;;;;;;;;;12.00;12.00;;;;;24.18;84.23;101538.16;5076637;27;46158;-76
2022/05/19 09:36:42;;;;;;;;;13.75;13.75;;;;;24.17;84.91;101541.69;5073446;28;45776;-77
2022/05/19 09:39:14;;;;;;;;;12.75;12.50;;;;;24.25;84.85;101547.84;5075333;28;45394;-75
2022/05/19 09:41:53;;;;;;;;;15.75;15.50;;;;;24.26;84.40;101550.53;5075228;28;45292;-75
2022/05/19 09:44:27;;;;;;;;;10.00;10.00;;;;;24.37;84.71;101552.28;5074541;28;46095;-76
2022/05/19 09:46:53;;;;;;;;;11.25;10.00;;;;;24.51;82.24;101553.13;5075003;28;45885;-77
2022/05/19 09:49:31;;;;;;;;;10.00;9.50;;;;;24.57;80.96;101561.06;5075524;28;45349;-78
2022/05/19 09:52:05;;;;;;;;;8.75;8.75;;;;;24.65;79.92;101562.81;5075329;28;45417;-78
2022/05/19 09:54:34;;;;;;;;;6.75;6.75;;;;;24.64;80.32;101567.25;5075302;27;45303;-77
2022/05/19 09:57:08;;;;;;;;;7.00;6.75;;;;;24.72;79.84;101564.63;5085113;27;45357;-79
2022/05/19 09:59:45;;;;;;;;;8.00;7.00;;;;;24.84;79.12;101569.00;5077526;28;45274;-81
2022/05/19 10:02:23;;;;;;;;;5.00;5.00;;;;;24.92;78.69;101568.97;5075576;28;45309;-81
2022/05/19 10:04:55;;;;;;;;;5.25;5.25;;;;;24.97;77.84;101570.72;5082064;27;45409;-81
2022/05/19 10:07:24;;;;;;;;;4.75;4.75;;;;;25.05;77.93;101560.13;5085082;27;45690;-78
2022/05/19 10:09:54;;;;;;;;;4.75;3.00;;;;;25.13;76.29;101560.06;5085269;27;45498;-78
2022/05/19 10:12:28;;;;;;;;;2.00;2.00;;;;;25.19;72.74;101547.69;5096791;27;45338;-78
2022/05/19 10:15:11;;;;;;;;;2.25;2.25;;;;;25.15;71.25;101569.78;5077467;27;46307;-77
2022/05/19 10:17:50;;;;;;;;;2.00;2.00;;;;;25.23;71.96;101574.19;5077049;28;45450;-76
2022/05/19 10:20:30;;;;;;;;;5.00;3.00;;;;;25.35;70.29;101576.78;5079011;28;45214;-78
2022/05/19 10:23:02;;;;;;;;;4.00;4.00;;;;;25.48;69.63;101577.63;5079068;28;45414;-78
2022/05/19 10:25:37;;;;;;;;;3.25;3.25;;;;;25.69;69.71;101592.56;5083670;27;46215;-77
2022/05/19 10:31:30;;;;;;;;;4.25;2.00;;;;;26.17;66.99;101580.75;5084666;27;45304;-76
2022/05/19 10:34:32;;;;;;;;;3.50;3.50;;;;;26.26;65.21;101596.59;5076154;27;45440;-77
2022/05/19 10:37:15;;;;;;;;;4.75;4.75;;;;;26.30;65.67;101587.72;5077837;27;45330;-79
2022/05/19 10:40:03;;;;;;;;;2.00;1.50;;;;;26.39;64.84;101584.97;5077668;28;45891;-77
2022/05/19 10:42:53;;;;;;;;;7.50;5.50;;;;;26.48;65.16;101585.78;5063705;28;45431;-79
2022/05/19 10:45:44;;;;;;;;;4.75;2.75;;;;;26.55;64.78;101593.69;5068938;28;45480;-81
2022/05/19 10:48:41;;;;;;;;;3.00;3.00;;;;;26.57;64.61;101597.22;5064520;27;45582;-79
2022/05/19 10:51:13;;;;;;;;;2.00;2.00;;;;;26.55;64.41;101593.69;5067328;27;45693;-77
2022/05/19 10:53:54;;;;;;;;;4.25;1.75;;;;;26.55;64.73;101599.00;5090022;27;45327;-78
2022/05/19 10:56:35;;;;;;;;;5.00;3.00;;;;;26.54;62.91;101604.34;5091882;27;45421;-82
2022/05/19 10:59:14;;;;;;;;;2.25;1.00;;;;;26.49;62.89;101593.75;5060305;28;47087;-76
2022/05/19 11:01:48;;;;;;;;;1.00;1.00;;;;;26.52;62.44;101591.03;5080013;28;45562;-77
2022/05/19 11:04:17;;;;;;;;;2.25;2.25;;;;;26.58;62.57;101587.44;5077922;28;45314;-77
2022/05/19 11:07:01;;;;;;;;;4.25;2.00;;;;;26.67;61.10;101595.31;5078546;28;45572;-79
2022/05/19 11:09:45;;;;;;;;;2.00;2.00;;;;;26.66;61.53;101595.34;5078068;27;45446;-79
2022/05/19 11:12:49;;;;;;;;;3.00;3.00;;;;;26.73;60.92;101603.25;5078441;27;45794;-78
2022/05/19 11:15:43;;;;;;;;;2.00;2.00;;;;;26.71;59.80;101591.75;5081904;27;45330;-75
2022/05/19 11:18:33;;;;;;;;;1.00;1.00;;;;;26.63;60.59;101593.63;5066174;27;45465;-76
2022/05/19 11:21:21;;;;;;;;;2.00;1.00;;;;;26.63;62.07;101588.31;5091357;27;45411;-75
2022/05/19 11:24:07;;;;;;;;;4.50;4.50;;;;;26.76;62.13;101583.75;5097957;27;45652;-76
2022/05/19 11:26:44;;;;;;;;;2.00;2.00;;;;;26.80;61.17;101584.63;5071013;27;45469;-78
2022/05/19 11:29:34;;;;;;;;;2.75;2.00;;;;;26.75;61.97;101595.25;5098866;27;45344;-78
2022/05/19 11:32:15;;;;;;;;;1.75;1.50;;;;;26.73;62.88;101571.38;5084682;27;46509;-79
2022/05/19 11:35:03;;;;;;;;;2.00;2.00;;;;;26.76;62.20;101567.78;5079460;28;45601;-78
2022/05/19 11:37:40;;;;;;;;;1.25;1.25;;;;;26.69;59.96;101566.97;5077839;28;45326;-84
2022/05/19 11:40:16;;;;;;;;;2.50;2.00;;;;;26.60;59.79;101567.06;5071832;28;45375;-79